Change the Weather History Date:

Wednesday, February 29, 2012

  Actual Average Record
Temperature  
Mean Temperature 32 °F -  
Max Temperature 35 °F - 57 °F (1964)
Min Temperature 30 °F - -5 °F (1980)
Degree Days  
Heating Degree Days 32    
Moisture  
Dew Point 32 °F    
Average Humidity 95    
Maximum Humidity 100    
Minimum Humidity 87    
Precipitation  
Precipitation 0.74 in - - ()
Sea Level Pressure  
Sea Level Pressure 29.60 in    
Wind  
Wind Speed 15 mph (ESE)    
Max Wind Speed 24 mph    
Max Gust Speed 30 mph    
Visibility 4 miles    
Events      
Averages and records for this station are not official NWS values.
T = Trace of Precipitation, MM = Missing Value Source: NWS Daily Summary

Daily Weather History Graph

Daily Weather History Graph

Search for Another Location

Airport or City:

Trip Planner

Search our weather history database for the weather conditions in past years. The results will help you decide how hot, cold, wet, or windy it might be!

Date:

Astronomy

Feb. 29, 2012 Rise Set
Actual Time 6:29 AM CST 5:37 PM CST
Civil Twilight 5:59 AM CST 6:06 PM CST
Nautical Twilight 5:25 AM CST 6:40 PM CST
Astronomical Twilight 4:51 AM CST 7:15 PM CST
Moon 9:58 AM CST (2/29) 12:44 AM CST (2/29)
Length of Visible Light 12h 06m
Length of Day
11h 07m
Waxing Crescent, 47% of the Moon is Illuminated
Feb 29
Waxing Crescent
Feb 29
First Quarter
Mar 8
Full
Mar 14
Last Quarter
Mar 22
New

Hourly Weather History & Observations

Time (CST) Temp. Windchill Dew Point Humidity Pressure Visibility Wind Dir Wind Speed Gust Speed Precip Events Conditions
12:15 AM 32.0 °F 22.5 °F 32.0 °F 100% 30.01 in 1.5 mi ESE 12.7 mph - N/A   Overcast
12:35 AM 32.0 °F 21.6 °F 30.2 °F 93% 30.00 in 1.5 mi ESE 15.0 mph - N/A   Overcast
12:55 AM 30.2 °F 19.8 °F 30.2 °F 100% 29.98 in 1.2 mi East 13.8 mph - N/A   Overcast
1:15 AM 32.0 °F 22.5 °F 30.2 °F 93% 29.95 in 1.0 mi East 12.7 mph - N/A   Overcast
1:35 AM 32.0 °F 21.2 °F 30.2 °F 93% 29.93 in 0.8 mi East 16.1 mph 23.0 mph N/A   Overcast
2:15 AM 32.0 °F 22.1 °F 32.0 °F 100% 29.92 in 1.8 mi ESE 13.8 mph - N/A   Overcast
2:35 AM 32.0 °F 22.1 °F 30.2 °F 93% 29.90 in 2.0 mi ESE 13.8 mph - N/A   Overcast
2:55 AM 32.0 °F 21.6 °F 30.2 °F 93% 29.87 in 1.5 mi East 15.0 mph - N/A   Overcast
3:15 AM 32.0 °F 20.5 °F 32.0 °F 100% 29.84 in 1.5 mi East 18.4 mph 23.0 mph N/A   Overcast
3:35 AM 32.0 °F 20.1 °F 32.0 °F 100% 29.81 in 1.2 mi East 19.6 mph - N/A   Overcast
3:55 AM 32.0 °F 20.5 °F 32.0 °F 100% 29.80 in 1.5 mi East 18.4 mph 23.0 mph N/A   Overcast
4:15 AM 32.0 °F 20.5 °F 30.2 °F 93% 29.79 in 1.8 mi East 18.4 mph 26.5 mph N/A   Overcast
4:35 AM 32.0 °F 20.8 °F 30.2 °F 93% 29.78 in 1.0 mi ESE 17.3 mph - N/A   Overcast
4:55 AM 32.0 °F 20.5 °F 32.0 °F 100% 29.75 in 1.2 mi ESE 18.4 mph 23.0 mph N/A   Overcast
5:15 AM 32.0 °F 20.5 °F 30.2 °F 93% 29.73 in 1.8 mi East 18.4 mph - N/A   Overcast
5:35 AM 32.0 °F 20.5 °F 30.2 °F 93% 29.70 in 2.0 mi East 18.4 mph 26.5 mph 0.01 in   Overcast
5:55 AM 32.0 °F 20.1 °F 30.2 °F 93% 29.68 in 2.5 mi East 19.6 mph 25.3 mph 0.01 in   Overcast
6:15 AM 32.0 °F 20.5 °F 32.0 °F 100% 29.65 in 2.5 mi East 18.4 mph 25.3 mph N/A   Overcast
6:35 AM 32.0 °F 19.8 °F 32.0 °F 100% 29.63 in 3.0 mi ESE 20.7 mph 29.9 mph N/A   Overcast
6:55 AM 33.8 °F 21.3 °F 33.8 °F 100% 29.59 in 3.0 mi East 24.2 mph 28.8 mph N/A   Overcast
7:15 AM 33.8 °F 22.2 °F 33.8 °F 100% 29.63 in 3.0 mi ESE 20.7 mph 27.6 mph N/A   Overcast
7:35 AM 33.8 °F 23.2 °F 32.0 °F 93% 29.64 in 1.2 mi ESE 17.3 mph - 0.01 in   Overcast
7:55 AM 33.8 °F 23.2 °F 32.0 °F 93% 29.63 in 1.2 mi East 17.3 mph - 0.01 in   Overcast
8:15 AM 32.0 °F 21.2 °F 32.0 °F 100% 29.61 in 0.8 mi East 16.1 mph 24.2 mph N/A   Overcast
8:35 AM 33.8 °F 22.8 °F 32.0 °F 93% 29.59 in 3.0 mi East 18.4 mph 24.2 mph N/A   Overcast
8:55 AM 33.8 °F 22.5 °F 32.0 °F 93% 29.58 in 9.0 mi ESE 19.6 mph 24.2 mph 0.02 in   Overcast
9:15 AM 33.8 °F 22.2 °F 32.0 °F 93% 29.57 in 10.0 mi ESE 20.7 mph 27.6 mph 0.05 in   Overcast
9:55 AM 33.8 °F 22.2 °F 33.8 °F 100% 29.55 in 7.0 mi ESE 20.7 mph 28.8 mph 0.13 in   Overcast
10:15 AM 33.8 °F 21.9 °F 32.0 °F 93% 29.54 in 10.0 mi ESE 21.9 mph - 0.04 in   Overcast
10:35 AM 33.8 °F 22.2 °F 32.0 °F 93% 29.52 in 8.0 mi East 20.7 mph - 0.07 in   Overcast
10:55 AM 33.8 °F 23.2 °F 33.8 °F 100% 29.51 in 7.0 mi East 17.3 mph 26.5 mph 0.10 in   Overcast
11:15 AM 35.6 °F 25.9 °F 32.0 °F 87% 29.50 in 5.0 mi East 16.1 mph - 0.03 in   Overcast
11:35 AM 33.8 °F 23.5 °F 32.0 °F 93% 29.49 in 9.0 mi East 16.1 mph - 0.05 in   Overcast
11:55 AM 35.6 °F 26.2 °F 32.0 °F 87% 29.47 in 10.0 mi East 15.0 mph - 0.06 in   Overcast
12:15 PM 35.6 °F 25.9 °F 33.8 °F 93% 29.46 in 10.0 mi East 16.1 mph - 0.02 in   Overcast
12:35 PM 35.6 °F 26.2 °F 33.8 °F 93% 29.44 in 10.0 mi East 15.0 mph - 0.04 in   Overcast
12:55 PM 35.6 °F 26.2 °F 32.0 °F 87% 29.43 in 5.0 mi East 15.0 mph 19.6 mph 0.05 in   Overcast
1:15 PM 35.6 °F 27.1 °F 33.8 °F 93% 29.42 in 8.0 mi East 12.7 mph - 0.03 in   Overcast
1:35 PM 35.6 °F 27.1 °F 33.8 °F 93% 29.40 in 8.0 mi East 12.7 mph - 0.04 in   Overcast
1:55 PM 35.6 °F 28.0 °F 33.8 °F 93% 29.40 in 6.0 mi East 10.4 mph 16.1 mph 0.05 in   Overcast
2:15 PM 33.8 °F 26.4 °F 33.8 °F 100% 29.39 in 1.2 mi East 9.2 mph - 0.07 in   Overcast
2:35 PM 33.8 °F 28.6 °F 32.0 °F 93% 29.39 in 2.5 mi NE 5.8 mph - 0.12 in   Overcast
2:55 PM 33.8 °F 29.6 °F 33.8 °F 100% 29.40 in 2.0 mi East 4.6 mph - 0.16 in   Overcast
3:15 PM 33.8 °F 29.6 °F 32.0 °F 93% 29.39 in 3.0 mi East 4.6 mph - 0.04 in   Overcast
3:35 PM 33.8 °F 30.8 °F 33.8 °F 100% 29.40 in 2.0 mi East 3.5 mph - 0.09 in   Overcast
3:55 PM 35.6 °F 30.7 °F 35.6 °F 100% 29.40 in 3.0 mi SSW 5.8 mph - 0.12 in   Overcast
4:15 PM 35.6 °F 29.9 °F 33.8 °F 93% 29.40 in 5.0 mi SW 6.9 mph - 0.02 in   Overcast
4:35 PM 35.6 °F 31.7 °F 33.8 °F 93% 29.40 in 5.0 mi South 4.6 mph - 0.02 in   Overcast
4:55 PM 35.6 °F 31.7 °F 33.8 °F 93% 29.41 in 5.0 mi South 4.6 mph - 0.03 in   Overcast
5:15 PM 33.8 °F 28.6 °F 32.0 °F 93% 29.41 in 3.0 mi SW 5.8 mph - N/A   Overcast
5:35 PM 33.8 °F 29.6 °F 33.8 °F 100% 29.41 in 3.0 mi SW 4.6 mph - N/A   Overcast
5:55 PM 33.8 °F 30.8 °F 32.0 °F 93% 29.42 in 5.0 mi SSW 3.5 mph - N/A   Overcast
6:15 PM 33.8 °F 28.6 °F 33.8 °F 100% 29.42 in 5.0 mi SW 5.8 mph - N/A   Overcast
6:35 PM 33.8 °F 30.8 °F 32.0 °F 93% 29.43 in 5.0 mi SSW 3.5 mph - 0.01 in   Overcast
6:55 PM 33.8 °F 29.6 °F 32.0 °F 93% 29.43 in 5.0 mi South 4.6 mph - 0.01 in   Overcast
7:15 PM 33.8 °F 30.8 °F 32.0 °F 93% 29.44 in 6.0 mi South 3.5 mph - N/A   Overcast
7:35 PM 33.8 °F 30.8 °F 32.0 °F 93% 29.44 in 5.0 mi South 3.5 mph - N/A   Overcast
8:15 PM 33.8 °F - 30.2 °F 87% 29.44 in 5.0 mi Calm Calm - N/A   Overcast
8:35 PM 33.8 °F - 32.0 °F 93% 29.45 in 6.0 mi Calm Calm - N/A   Overcast
8:55 PM 33.8 °F - 32.0 °F 93% 29.45 in 5.0 mi Calm Calm - N/A   Overcast
9:15 PM 33.8 °F 30.8 °F 32.0 °F 93% 29.45 in 5.0 mi SSE 3.5 mph - N/A   Overcast
9:35 PM 33.8 °F - 32.0 °F 93% 29.46 in 5.0 mi Calm Calm - N/A   Overcast
9:55 PM 33.8 °F - 32.0 °F 93% 29.47 in 4.0 mi Calm Calm - N/A   Overcast
10:15 PM 32.0 °F - 32.0 °F 100% 29.47 in 2.5 mi Calm Calm - N/A   Overcast
10:35 PM 32.0 °F - 30.2 °F 93% 29.48 in 2.5 mi Calm Calm - N/A   Overcast
10:55 PM 33.8 °F 30.8 °F 33.8 °F 100% 29.49 in 3.0 mi NNW 3.5 mph - N/A   Overcast
11:15 PM 32.0 °F - 32.0 °F 100% 29.50 in 2.0 mi Calm Calm - N/A   Overcast
11:35 PM 32.0 °F 28.7 °F 32.0 °F 100% 29.51 in 3.0 mi NNW 3.5 mph - N/A   Overcast
11:55 PM 32.0 °F 27.5 °F 32.0 °F 100% 29.52 in 3.0 mi NNW 4.6 mph - N/A   Overcast